createdAt,value
2019-03-06T00:02:26.403Z,15.60
2019-03-06T00:04:56.767Z,15.97
2019-03-06T00:07:27.308Z,15.97
2019-03-06T00:09:57.667Z,17.40
2019-03-06T00:12:28.141Z,18.27
2019-03-06T00:14:58.566Z,16.83
2019-03-06T00:17:29.054Z,23.03
2019-03-06T00:19:59.474Z,15.70
2019-03-06T00:22:29.881Z,21.60
2019-03-06T00:25:00.332Z,19.30
2019-03-06T00:27:30.811Z,19.47
2019-03-06T00:30:01.248Z,19.43
2019-03-06T00:32:31.729Z,19.20
2019-03-06T00:35:04.083Z,23.60
2019-03-06T00:37:54.690Z,20.27
2019-03-06T00:40:26.526Z,25.03
2019-03-06T00:42:57.025Z,27.20
2019-03-06T00:45:27.410Z,24.10
2019-03-06T00:47:57.879Z,24.40
2019-03-06T00:50:28.303Z,29.83
2019-03-06T00:52:58.758Z,30.50
2019-03-06T00:55:29.181Z,26.67
2019-03-06T00:57:59.564Z,24.50
2019-03-06T01:00:30.097Z,22.30
2019-03-06T01:03:00.726Z,29.13
2019-03-06T01:05:31.121Z,28.43
2019-03-06T01:08:01.589Z,26.23
2019-03-06T01:10:32.025Z,31.67
2019-03-06T01:13:02.515Z,31.13
2019-03-06T01:15:32.932Z,25.20
2019-03-06T01:18:03.413Z,31.40
2019-03-06T01:20:33.879Z,32.43
2019-03-06T01:23:04.327Z,33.90
2019-03-06T01:25:34.874Z,29.43
2019-03-06T01:28:05.345Z,27.57
2019-03-06T01:30:35.800Z,31.10
2019-03-06T01:33:25.933Z,30.23
2019-03-06T01:36:01.000Z,34.00
2019-03-06T01:38:39.099Z,26.63
2019-03-06T01:41:11.117Z,25.97
2019-03-06T01:43:46.150Z,28.63
2019-03-06T01:46:16.583Z,30.50
2019-03-06T01:48:47.082Z,25.30
2019-03-06T01:51:17.519Z,32.73
2019-03-06T01:53:48.026Z,26.60
2019-03-06T01:56:18.482Z,26.90
2019-03-06T01:58:48.977Z,26.63
2019-03-06T02:01:19.419Z,25.13
2019-03-06T02:03:50.984Z,24.80
2019-03-06T02:06:21.593Z,24.93
2019-03-06T02:08:52.072Z,24.47
2019-03-06T02:11:22.511Z,27.33
2019-03-06T02:13:53.020Z,25.80
2019-03-06T02:16:23.445Z,24.57
2019-03-06T02:18:53.956Z,23.97
2019-03-06T02:21:24.382Z,23.37
2019-03-06T02:23:54.868Z,19.10
2019-03-06T02:26:26.791Z,24.17
2019-03-06T02:28:57.276Z,24.23
2019-03-06T02:31:27.726Z,22.97
2019-03-06T02:33:58.216Z,21.07
2019-03-06T02:36:28.643Z,22.30
2019-03-06T02:38:59.122Z,24.27
2019-03-06T02:41:29.558Z,23.13
2019-03-06T02:44:00.058Z,24.17
2019-03-06T02:46:30.515Z,22.47
2019-03-06T02:49:01.003Z,22.13
2019-03-06T02:51:31.721Z,30.10
2019-03-06T02:54:02.279Z,21.57
2019-03-06T02:56:32.688Z,22.97
2019-03-06T02:59:04.742Z,22.67
2019-03-06T03:01:52.910Z,24.13
2019-03-06T03:04:34.765Z,25.80
2019-03-06T03:07:06.768Z,18.07
2019-03-06T03:09:37.331Z,22.20
2019-03-06T03:12:07.754Z,22.97
2019-03-06T03:14:38.247Z,24.40
2019-03-06T03:17:08.676Z,20.80
2019-03-06T03:19:39.157Z,24.20
2019-03-06T03:22:09.585Z,26.67
2019-03-06T03:24:40.043Z,28.13
2019-03-06T03:27:10.493Z,25.77
2019-03-06T03:29:40.972Z,26.73
2019-03-06T03:32:11.440Z,20.57
2019-03-06T03:34:42.001Z,23.10
2019-03-06T03:37:12.467Z,23.77
2019-03-06T03:39:42.948Z,32.47
2019-03-06T03:42:13.402Z,27.20
2019-03-06T03:44:43.949Z,27.73
2019-03-06T03:47:14.385Z,24.37
2019-03-06T03:49:44.888Z,27.17
2019-03-06T03:52:15.336Z,29.17
2019-03-06T03:54:45.830Z,33.97
2019-03-06T03:57:16.460Z,26.37
2019-03-06T03:59:46.966Z,28.53
2019-03-06T04:02:17.424Z,27.40
2019-03-06T04:04:48.875Z,27.93
2019-03-06T04:07:19.332Z,30.33
2019-03-06T04:09:49.831Z,30.17
2019-03-06T04:12:20.279Z,28.63
2019-03-06T04:14:50.787Z,29.50
2019-03-06T04:17:21.236Z,26.63
2019-03-06T04:19:51.718Z,26.53
2019-03-06T04:22:22.170Z,24.10
2019-03-06T04:24:52.671Z,24.57
2019-03-06T04:27:23.112Z,31.07
2019-03-06T04:29:53.582Z,22.43
2019-03-06T04:32:24.362Z,29.40
2019-03-06T04:34:54.822Z,28.27
2019-03-06T04:37:25.223Z,26.60
2019-03-06T04:39:55.688Z,26.20
2019-03-06T04:42:26.100Z,26.87
2019-03-06T04:44:56.588Z,23.43
2019-03-06T04:47:27.008Z,24.47
2019-03-06T04:49:57.481Z,23.93
2019-03-06T04:52:27.899Z,26.17
2019-03-06T04:54:58.819Z,22.57
2019-03-06T04:57:29.242Z,23.67
2019-03-06T04:59:59.701Z,22.77
2019-03-06T05:02:30.116Z,20.07
2019-03-06T05:05:01.542Z,30.97
2019-03-06T05:07:31.981Z,20.47
2019-03-06T05:10:02.447Z,21.63
2019-03-06T05:12:32.855Z,19.60
2019-03-06T05:15:03.373Z,21.30
2019-03-06T05:17:41.675Z,21.10
2019-03-06T05:20:12.161Z,22.27
2019-03-06T05:22:42.566Z,22.83
2019-03-06T05:25:13.045Z,30.37
2019-03-06T05:27:43.466Z,19.13
2019-03-06T05:30:15.521Z,21.57
2019-03-06T05:32:48.228Z,23.87
2019-03-06T05:35:24.326Z,28.33
2019-03-06T05:38:04.397Z,20.90
2019-03-06T05:40:34.909Z,21.87
2019-03-06T05:43:05.415Z,20.37
2019-03-06T05:45:35.890Z,20.50
2019-03-06T05:48:06.470Z,19.40
2019-03-06T05:50:36.960Z,22.70
2019-03-06T05:53:07.387Z,22.47
2019-03-06T05:55:37.857Z,28.93
2019-03-06T05:58:08.297Z,19.40
2019-03-06T06:00:38.766Z,20.23
2019-03-06T06:03:09.176Z,18.60
2019-03-06T06:05:40.714Z,25.20
2019-03-06T06:08:11.183Z,19.87
2019-03-06T06:10:41.656Z,22.33
2019-03-06T06:13:12.137Z,27.10
2019-03-06T06:15:42.648Z,26.27
2019-03-06T06:18:13.086Z,17.67
2019-03-06T06:20:43.840Z,17.90
2019-03-06T06:23:15.832Z,17.37
2019-03-06T06:25:46.291Z,25.40
2019-03-06T06:28:16.740Z,18.73
2019-03-06T06:30:47.204Z,17.33
2019-03-06T06:33:17.632Z,23.27
2019-03-06T06:35:48.130Z,20.87
2019-03-06T06:38:18.560Z,15.33
2019-03-06T06:40:49.020Z,26.57
2019-03-06T06:43:19.690Z,31.60
2019-03-06T06:45:50.186Z,23.17
2019-03-06T06:48:22.704Z,17.30
2019-03-06T06:51:07.919Z,29.70
2019-03-06T06:53:47.447Z,18.70
2019-03-06T06:56:38.789Z,26.50
2019-03-06T06:59:27.378Z,29.03
2019-03-06T07:02:14.460Z,21.57
2019-03-06T07:05:11.739Z,23.93
2019-03-06T07:07:49.970Z,24.97
2019-03-06T07:10:38.560Z,23.40
2019-03-06T07:13:16.593Z,18.60
2019-03-06T07:15:48.606Z,31.90
2019-03-06T07:18:20.682Z,28.13
2019-03-06T07:21:10.754Z,21.23
2019-03-06T07:23:51.977Z,23.70
2019-03-06T07:26:40.091Z,20.40
2019-03-06T07:29:12.110Z,22.17
2019-03-06T07:31:50.175Z,14.60
2019-03-06T07:34:38.474Z,27.13
2019-03-06T07:37:10.502Z,19.97
2019-03-06T07:39:42.542Z,18.67
2019-03-06T07:42:26.427Z,17.67
2019-03-06T07:45:32.952Z,18.20
2019-03-06T07:48:07.650Z,28.00
2019-03-06T07:50:39.703Z,15.47
2019-03-06T07:53:49.102Z,31.30
2019-03-06T07:56:21.765Z,20.17
2019-03-06T07:58:57.032Z,27.70
2019-03-06T08:01:30.420Z,20.10
2019-03-06T08:04:12.198Z,20.27
2019-03-06T08:06:44.261Z,25.97
2019-03-06T08:09:19.343Z,28.97
2019-03-06T08:12:00.567Z,16.87
2019-03-06T08:14:32.552Z,17.67
2019-03-06T08:17:04.621Z,26.67
2019-03-06T08:19:52.759Z,21.60
2019-03-06T08:22:24.819Z,21.93
2019-03-06T08:25:13.273Z,19.13
2019-03-06T08:27:43.766Z,19.30
2019-03-06T08:30:14.426Z,15.80
2019-03-06T08:32:44.940Z,18.20
2019-03-06T08:35:15.377Z,24.70
2019-03-06T08:37:45.985Z,17.57
2019-03-06T08:40:16.488Z,22.97
2019-03-06T08:42:46.983Z,28.43
2019-03-06T08:45:35.283Z,23.57
2019-03-06T08:48:22.439Z,16.40
2019-03-06T08:51:10.958Z,17.80
2019-03-06T08:53:45.752Z,25.10
2019-03-06T08:56:17.746Z,30.20
2019-03-06T08:58:59.054Z,17.63
2019-03-06T09:01:46.558Z,21.13
2019-03-06T09:04:33.885Z,18.23
2019-03-06T09:07:14.946Z,24.27
2019-03-06T09:09:53.530Z,17.10
2019-03-06T09:12:28.211Z,18.57
2019-03-06T09:15:06.993Z,24.07
2019-03-06T09:17:45.057Z,20.83
2019-03-06T09:20:19.871Z,18.40
2019-03-06T09:22:54.931Z,18.43
2019-03-06T09:25:30.873Z,20.73
2019-03-06T09:28:12.022Z,18.27
2019-03-06T09:30:47.376Z,29.07
2019-03-06T09:33:28.749Z,19.50
2019-03-06T09:36:19.680Z,15.27
2019-03-06T09:38:58.645Z,23.30
2019-03-06T09:41:45.735Z,21.70
2019-03-06T09:44:30.972Z,13.90
2019-03-06T09:47:15.693Z,17.70
2019-03-06T09:49:56.787Z,17.03
2019-03-06T09:52:44.009Z,14.57
2019-03-06T09:55:18.685Z,15.03
2019-03-06T09:57:53.791Z,15.83
2019-03-06T10:00:32.865Z,17.93
2019-03-06T10:03:11.953Z,27.90
2019-03-06T10:05:47.114Z,14.20
2019-03-06T10:08:21.831Z,14.10
2019-03-06T10:10:58.138Z,13.87
2019-03-06T10:13:30.351Z,12.90
2019-03-06T10:16:17.280Z,12.57
2019-03-06T10:18:49.441Z,10.40
2019-03-06T10:21:19.859Z,12.47
2019-03-06T10:23:50.318Z,24.83
2019-03-06T10:26:20.999Z,17.23
2019-03-06T10:28:51.574Z,30.37
2019-03-06T10:31:22.193Z,19.67
2019-03-06T10:33:52.650Z,13.50
2019-03-06T10:36:23.080Z,15.17
2019-03-06T10:38:55.141Z,14.60
2019-03-06T10:41:25.828Z,19.67
2019-03-06T10:43:56.304Z,23.03
2019-03-06T10:46:28.245Z,11.53
2019-03-06T10:48:58.751Z,15.40
2019-03-06T10:51:31.005Z,20.13
2019-03-06T10:54:01.368Z,19.53
2019-03-06T10:56:31.902Z,21.10
2019-03-06T10:59:02.658Z,21.87
2019-03-06T11:01:33.198Z,13.90
2019-03-06T11:04:05.456Z,17.10
2019-03-06T11:06:35.997Z,18.57
2019-03-06T11:09:09.524Z,16.07
2019-03-06T11:11:43.545Z,10.73
2019-03-06T11:14:13.999Z,15.90
2019-03-06T11:16:48.222Z,19.57
2019-03-06T11:19:18.729Z,11.40
2019-03-06T11:21:49.181Z,19.47
2019-03-06T11:26:51.609Z,20.25
2019-03-06T11:29:22.056Z,18.70
2019-03-06T11:31:53.998Z,17.93
2019-03-06T11:34:24.615Z,15.03
2019-03-06T11:36:55.361Z,7.63
2019-03-06T11:39:26.064Z,14.37
2019-03-06T11:41:56.652Z,7.50
2019-03-06T11:44:27.079Z,14.43
2019-03-06T11:46:57.554Z,17.27
2019-03-06T11:49:30.012Z,11.15
2019-03-06T11:52:00.443Z,21.40
2019-03-06T11:54:30.893Z,9.10
2019-03-06T11:57:01.342Z,7.92
2019-03-06T11:59:31.749Z,19.87
2019-03-06T12:02:02.740Z,6.42
2019-03-06T12:04:33.223Z,7.90
2019-03-06T12:07:05.027Z,7.78
2019-03-06T12:09:35.609Z,9.73
2019-03-06T12:12:07.285Z,9.10
2019-03-06T12:14:37.898Z,14.45
2019-03-06T12:17:08.354Z,18.20
2019-03-06T12:19:39.863Z,7.12
2019-03-06T12:22:10.868Z,7.70
2019-03-06T12:24:52.786Z,14.33
2019-03-06T12:27:23.255Z,6.22
2019-03-06T12:29:53.844Z,9.45
2019-03-06T12:32:24.313Z,14.07
2019-03-06T12:34:54.902Z,12.13
2019-03-06T12:37:25.436Z,8.70
2019-03-06T12:39:55.977Z,12.53
2019-03-06T12:42:26.736Z,14.70
2019-03-06T12:44:57.095Z,15.03
2019-03-06T12:47:27.714Z,27.30
2019-03-06T12:50:05.411Z,15.15
2019-03-06T12:52:43.537Z,10.97
2019-03-06T12:55:16.644Z,18.50
2019-03-06T12:57:47.144Z,8.05
2019-03-06T13:00:27.633Z,11.50
2019-03-06T13:02:58.456Z,25.82
2019-03-06T13:05:29.051Z,11.22
2019-03-06T13:07:59.672Z,12.00
2019-03-06T13:10:30.492Z,18.40
2019-03-06T13:13:01.953Z,8.70
2019-03-06T13:15:32.902Z,8.20
2019-03-06T13:18:03.564Z,9.57
2019-03-06T13:20:35.013Z,9.27
2019-03-06T13:23:05.891Z,6.90
2019-03-06T13:25:36.327Z,20.43
2019-03-06T13:28:06.892Z,19.83
2019-03-06T13:30:37.824Z,11.97
2019-03-06T13:33:15.688Z,19.80
2019-03-06T13:35:46.240Z,12.07
2019-03-06T13:38:16.773Z,14.03
2019-03-06T13:40:47.399Z,10.03
2019-03-06T13:43:17.976Z,12.45
2019-03-06T13:45:49.857Z,14.37
2019-03-06T13:48:20.334Z,10.93
2019-03-06T13:50:51.128Z,12.07
2019-03-06T13:53:21.870Z,8.10
2019-03-06T13:55:52.317Z,16.00
2019-03-06T13:58:24.318Z,8.17
2019-03-06T14:00:54.760Z,18.60
2019-03-06T14:03:25.310Z,11.83
2019-03-06T14:05:56.807Z,10.00
2019-03-06T14:08:27.486Z,11.23
2019-03-06T14:10:57.927Z,11.43
2019-03-06T14:13:30.389Z,19.13
2019-03-06T14:16:00.894Z,14.97
2019-03-06T14:18:31.372Z,104.07
2019-03-06T14:21:01.768Z,15.33
2019-03-06T14:23:35.215Z,10.33
2019-03-06T14:26:08.695Z,15.20
2019-03-06T14:28:39.164Z,22.17
2019-03-06T14:31:10.971Z,14.33
2019-03-06T14:33:41.446Z,20.80
2019-03-06T14:36:11.966Z,17.20
2019-03-06T14:38:42.459Z,27.03
2019-03-06T14:41:12.875Z,11.63
2019-03-06T14:43:43.436Z,32.73
2019-03-06T14:46:17.054Z,23.83
2019-03-06T14:48:48.167Z,29.93
2019-03-06T14:51:18.505Z,25.80
2019-03-06T14:53:48.979Z,28.20
2019-03-06T14:56:19.496Z,29.17
2019-03-06T14:58:54.098Z,25.40
2019-03-06T15:01:25.378Z,39.07
2019-03-06T15:03:57.494Z,18.60
2019-03-06T15:06:27.958Z,24.97
2019-03-06T15:08:58.553Z,12.87
2019-03-06T15:11:33.293Z,18.90
2019-03-06T15:14:04.996Z,14.70
2019-03-06T15:16:55.124Z,25.17
2019-03-06T15:19:27.000Z,20.60
2019-03-06T15:21:58.786Z,20.70
2019-03-06T15:24:29.323Z,18.47
2019-03-06T15:26:59.958Z,23.17
2019-03-06T15:29:30.430Z,22.70
2019-03-06T15:32:03.605Z,17.10
2019-03-06T15:34:34.070Z,23.17
2019-03-06T15:37:04.509Z,29.33
2019-03-06T15:39:44.528Z,31.40
2019-03-06T15:42:09.570Z,35.23
2019-03-06T15:44:40.529Z,32.23
2019-03-06T15:47:12.189Z,46.53
2019-03-06T15:49:42.991Z,40.40
2019-03-06T15:52:15.083Z,41.90
2019-03-06T15:54:45.649Z,39.83
2019-03-06T15:57:16.652Z,43.03
2019-03-06T15:59:47.362Z,38.20
2019-03-06T16:02:17.812Z,50.77
2019-03-06T16:04:48.365Z,65.60
2019-03-06T16:10:27.622Z,43.43
2019-03-06T16:13:01.066Z,47.40
2019-03-06T16:15:32.700Z,40.33
2019-03-06T16:18:05.219Z,43.10
2019-03-06T16:20:35.814Z,41.97
2019-03-06T16:23:06.235Z,45.37
2019-03-06T16:25:39.910Z,33.30
2019-03-06T16:28:08.818Z,36.23
2019-03-06T16:30:40.238Z,41.53
2019-03-06T16:33:10.683Z,44.70
2019-03-06T16:35:41.133Z,55.30
2019-03-06T16:38:11.555Z,37.80
2019-03-06T16:40:42.191Z,57.10
2019-03-06T16:43:12.926Z,32.60
2019-03-06T16:45:43.485Z,46.73
2019-03-06T16:48:13.949Z,44.57
2019-03-06T16:50:44.596Z,39.20
2019-03-06T16:53:15.422Z,29.83
2019-03-06T16:55:45.916Z,23.47
2019-03-06T16:58:16.373Z,26.20
2019-03-06T17:00:47.359Z,32.43
2019-03-06T17:03:17.749Z,44.67
2019-03-06T17:05:48.751Z,48.43
2019-03-06T17:08:20.427Z,54.13
2019-03-06T17:10:50.943Z,59.70
2019-03-06T17:13:21.421Z,51.00
2019-03-06T17:15:53.795Z,48.23
2019-03-06T17:18:24.454Z,54.83
2019-03-06T17:20:55.089Z,50.23
2019-03-06T17:23:25.576Z,55.40
2019-03-06T17:25:56.101Z,53.03
2019-03-06T17:28:26.564Z,77.93
2019-03-06T17:30:57.147Z,52.10
2019-03-06T17:33:27.623Z,58.73
2019-03-06T17:35:58.137Z,58.33
2019-03-06T17:38:28.701Z,60.37
2019-03-06T17:40:59.173Z,48.27
2019-03-06T17:43:30.811Z,68.17
2019-03-06T17:46:01.399Z,51.13
2019-03-06T17:48:31.977Z,61.17
2019-03-06T17:51:02.481Z,61.30
2019-03-06T17:53:32.962Z,63.97
2019-03-06T17:56:03.512Z,64.23
2019-03-06T17:58:33.980Z,71.83
2019-03-06T18:01:06.099Z,74.77
2019-03-06T18:03:38.100Z,81.93
2019-03-06T18:06:08.660Z,70.17
2019-03-06T18:08:39.318Z,115.00
2019-03-06T18:11:09.940Z,192.33
2019-03-06T18:13:40.397Z,220.03
2019-03-06T18:16:11.091Z,247.53
2019-03-06T18:18:41.571Z,218.63
2019-03-06T18:21:12.528Z,159.27
2019-03-06T18:23:43.007Z,122.30
2019-03-06T18:26:13.501Z,108.67
2019-03-06T18:28:44.056Z,103.50
2019-03-06T18:31:15.027Z,115.77
2019-03-06T18:33:45.646Z,105.13
2019-03-06T18:36:16.166Z,117.57
2019-03-06T18:38:46.612Z,110.53
2019-03-06T18:41:17.096Z,132.50
2019-03-06T18:43:47.571Z,99.93
2019-03-06T18:46:18.079Z,96.50
2019-03-06T18:48:48.797Z,98.03
2019-03-06T18:51:19.341Z,106.33
2019-03-06T18:53:49.808Z,118.23
2019-03-06T18:56:20.299Z,112.57
2019-03-06T18:58:50.764Z,97.43
2019-03-06T19:01:21.284Z,96.80
2019-03-06T19:03:51.759Z,110.37
2019-03-06T19:06:22.291Z,93.23
2019-03-06T19:08:52.745Z,82.50
2019-03-06T19:11:23.232Z,86.13
2019-03-06T19:13:53.679Z,70.17
2019-03-06T19:16:25.431Z,68.33
2019-03-06T19:18:55.900Z,59.90
2019-03-06T19:21:26.397Z,53.23
2019-03-06T19:23:56.861Z,51.47
2019-03-06T19:26:27.349Z,39.27
2019-03-06T19:28:57.902Z,38.07
2019-03-06T19:31:28.396Z,39.00
2019-03-06T19:33:58.850Z,38.90
2019-03-06T19:36:29.383Z,48.63
2019-03-06T19:38:59.890Z,50.20
2019-03-06T19:41:30.421Z,52.33
2019-03-06T19:44:01.185Z,52.87
2019-03-06T19:46:31.686Z,49.40
2019-03-06T19:49:02.132Z,61.43
2019-03-06T19:51:32.651Z,63.60
2019-03-06T19:54:03.123Z,57.20
2019-03-06T19:56:33.897Z,64.93
2019-03-06T19:59:04.388Z,57.17
2019-03-06T20:01:34.944Z,54.67
2019-03-06T20:04:05.565Z,44.20
2019-03-06T20:06:36.064Z,35.20
2019-03-06T20:09:09.426Z,31.70
2019-03-06T20:11:39.938Z,26.73
2019-03-06T20:14:10.383Z,25.60
2019-03-06T20:16:41.881Z,32.70
2019-03-06T20:19:12.335Z,23.70
2019-03-06T20:21:42.806Z,27.13
2019-03-06T20:24:13.452Z,25.87
2019-03-06T20:26:44.169Z,22.20
2019-03-06T20:29:14.762Z,24.83
2019-03-06T20:31:45.275Z,24.73
2019-03-06T20:34:15.723Z,23.50
2019-03-06T20:36:46.219Z,21.93
2019-03-06T20:39:16.672Z,24.00
2019-03-06T20:41:48.404Z,23.53
2019-03-06T20:44:20.353Z,23.83
2019-03-06T20:46:50.850Z,24.63
2019-03-06T20:49:21.297Z,24.23
2019-03-06T20:51:51.961Z,27.17
2019-03-06T20:54:22.412Z,28.20
2019-03-06T20:56:52.905Z,31.57
2019-03-06T20:59:23.376Z,29.37
2019-03-06T21:01:53.859Z,26.13
2019-03-06T21:04:24.303Z,27.20
2019-03-06T21:06:54.814Z,25.63
2019-03-06T21:09:25.268Z,29.13
2019-03-06T21:11:55.740Z,27.23
2019-03-06T21:14:26.201Z,26.63
2019-03-06T21:16:57.667Z,28.77
2019-03-06T21:19:28.111Z,27.20
2019-03-06T21:21:58.595Z,31.90
2019-03-06T21:24:29.224Z,29.23
2019-03-06T21:26:59.725Z,36.13
2019-03-06T21:29:30.169Z,32.63
2019-03-06T21:32:00.695Z,39.00
2019-03-06T21:34:31.164Z,29.43
2019-03-06T21:37:01.662Z,31.53
2019-03-06T21:39:32.135Z,34.50
2019-03-06T21:42:02.675Z,28.27
2019-03-06T21:44:33.148Z,26.30
2019-03-06T21:47:03.681Z,29.17
2019-03-06T21:49:34.125Z,28.57
2019-03-06T21:52:04.905Z,26.30
2019-03-06T21:54:35.396Z,27.83
2019-03-06T21:57:05.933Z,30.07
2019-03-06T21:59:36.371Z,28.43
2019-03-06T22:02:06.884Z,20.07
2019-03-06T22:04:37.322Z,18.47
2019-03-06T22:07:07.851Z,23.47
2019-03-06T22:09:38.320Z,22.57
2019-03-06T22:12:08.819Z,24.87
2019-03-06T22:14:39.272Z,24.83
2019-03-06T22:17:10.779Z,17.40
2019-03-06T22:19:41.257Z,20.57
2019-03-06T22:22:11.746Z,28.63
2019-03-06T22:24:42.722Z,20.90
2019-03-06T22:27:13.207Z,20.70
2019-03-06T22:29:43.665Z,22.43
2019-03-06T22:32:14.331Z,18.53
2019-03-06T22:34:44.804Z,20.53
2019-03-06T22:37:15.289Z,18.23
2019-03-06T22:39:45.745Z,23.93
2019-03-06T22:42:16.218Z,23.27
2019-03-06T22:44:46.692Z,18.90
2019-03-06T22:47:17.210Z,20.77
2019-03-06T22:49:47.656Z,23.10
2019-03-06T22:52:18.159Z,17.33
2019-03-06T22:54:48.618Z,20.50
2019-03-06T22:57:19.140Z,17.30
2019-03-06T22:59:49.583Z,18.23
2019-03-06T23:02:21.961Z,13.50
2019-03-06T23:04:52.413Z,16.87
2019-03-06T23:07:22.907Z,24.57
2019-03-06T23:09:53.333Z,20.07
2019-03-06T23:12:23.833Z,22.83
2019-03-06T23:14:54.291Z,17.73
2019-03-06T23:17:25.761Z,21.20
2019-03-06T23:19:56.225Z,18.83
2019-03-06T23:22:26.809Z,21.90
2019-03-06T23:24:57.269Z,15.33
2019-03-06T23:27:27.734Z,17.57
2019-03-06T23:29:58.168Z,16.70
2019-03-06T23:32:28.660Z,19.50
2019-03-06T23:34:59.097Z,15.73
2019-03-06T23:37:29.583Z,17.80
2019-03-06T23:40:00.051Z,16.53
2019-03-06T23:42:30.536Z,15.27
2019-03-06T23:45:00.970Z,17.10
2019-03-06T23:47:31.463Z,15.70
2019-03-06T23:50:02.096Z,14.53
2019-03-06T23:52:34.156Z,20.27
2019-03-06T23:55:04.699Z,11.53
2019-03-06T23:57:35.311Z,15.47
